Time;durP1;ratioP1;P1;durP2;ratioP2;P2;SDS_P1;SDS_P2;PMS_P1;PMS_P2;Temp;Humidity;BMP_temperature;BMP_pressure;BME280_temperature;BME280_humidity;BME280_pressure;Samples;Min_cycle;Max_cycle;Signal;HPM_P1;HPM_P2
2020/12/24 00:00:59;;;;;;;23.50;12.00;;;0.40;99.90;;;;;;4975277;28;20441;-80
2020/12/24 00:03:25;;;;;;;23.17;12.23;;;0.50;99.90;;;;;;4975982;28;20039;-79
2020/12/24 00:05:52;;;;;;;19.33;11.20;;;0.50;99.90;;;;;;4975592;28;20027;-79
2020/12/24 00:08:19;;;;;;;21.13;11.55;;;0.50;99.90;;;;;;4975788;28;20058;-81
2020/12/24 00:10:44;;;;;;;22.80;11.82;;;0.50;99.90;;;;;;4976117;28;20387;-80
2020/12/24 00:13:10;;;;;;;19.30;11.20;;;0.50;99.90;;;;;;4976102;28;20031;-81
2020/12/24 00:15:36;;;;;;;22.60;11.88;;;0.50;99.90;;;;;;4955214;29;20062;-79
2020/12/24 00:18:02;;;;;;;19.55;10.90;;;0.50;99.90;;;;;;4956452;29;20095;-79
2020/12/24 00:20:27;;;;;;;20.40;11.80;;;0.50;99.90;;;;;;4939884;29;20027;-80
2020/12/24 00:22:53;;;;;;;19.48;10.90;;;0.50;99.90;;;;;;4939864;29;20059;-80
2020/12/24 00:25:18;;;;;;;21.17;12.70;;;0.50;99.90;;;;;;4956658;29;20123;-81
2020/12/24 00:27:44;;;;;;;24.02;12.07;;;0.50;99.90;;;;;;4956442;29;20035;-80
2020/12/24 00:30:11;;;;;;;23.42;11.13;;;0.50;99.90;;;;;;4957224;28;20513;-80
2020/12/24 00:32:37;;;;;;;19.25;11.15;;;0.50;99.90;;;;;;4956401;28;20051;-81
2020/12/24 00:35:03;;;;;;;19.77;10.45;;;0.50;99.90;;;;;;4957084;28;20066;-80
2020/12/24 00:37:28;;;;;;;15.98;9.77;;;0.50;99.90;;;;;;4958518;29;20463;-80
2020/12/24 00:39:54;;;;;;;20.27;10.80;;;0.40;99.90;;;;;;4964749;29;20023;-81
2020/12/24 00:42:20;;;;;;;17.08;10.15;;;0.40;99.90;;;;;;4956761;29;20450;-81
2020/12/24 00:44:45;;;;;;;17.75;10.88;;;0.50;99.90;;;;;;4959368;29;20102;-81
2020/12/24 00:47:11;;;;;;;17.92;10.55;;;0.40;99.90;;;;;;4958162;29;20409;-79
2020/12/24 00:49:37;;;;;;;16.80;9.57;;;0.40;99.90;;;;;;4955792;28;20031;-80
2020/12/24 00:52:02;;;;;;;18.65;10.18;;;0.40;99.90;;;;;;4955993;29;20438;-80
2020/12/24 00:54:28;;;;;;;20.52;10.05;;;0.40;99.90;;;;;;4956642;29;20470;-80
2020/12/24 00:56:54;;;;;;;16.80;10.23;;;0.40;99.90;;;;;;4956518;29;20054;-80
2020/12/24 00:59:19;;;;;;;16.50;9.82;;;0.40;99.90;;;;;;4956033;29;20031;-81
2020/12/24 01:01:45;;;;;;;17.95;11.32;;;0.40;99.90;;;;;;4955893;29;20035;-81
2020/12/24 01:04:11;;;;;;;17.95;9.95;;;0.30;99.90;;;;;;4956015;28;20137;-81
2020/12/24 01:06:37;;;;;;;22.02;10.02;;;0.30;99.90;;;;;;4955862;28;20134;-80
2020/12/24 01:09:03;;;;;;;19.42;10.65;;;0.30;99.90;;;;;;4956026;29;20526;-82
2020/12/24 01:11:30;;;;;;;17.38;10.23;;;0.30;99.90;;;;;;4956015;29;20046;-81
2020/12/24 01:13:56;;;;;;;19.10;10.23;;;0.40;99.90;;;;;;4958885;28;20042;-81
2020/12/24 01:16:22;;;;;;;17.63;10.32;;;0.40;99.90;;;;;;4974647;28;20046;-80
2020/12/24 01:18:48;;;;;;;19.00;11.00;;;0.40;99.90;;;;;;4974047;28;20044;-80
2020/12/24 01:21:13;;;;;;;21.05;11.57;;;0.40;99.90;;;;;;4974105;28;20105;-80
2020/12/24 01:23:39;;;;;;;19.67;11.73;;;0.30;99.90;;;;;;4973960;28;20019;-80
2020/12/24 01:26:08;;;;;;;20.67;11.60;;;0.30;99.90;;;;;;4973948;28;20035;-79
2020/12/24 01:28:34;;;;;;;17.38;10.93;;;0.30;99.90;;;;;;4973919;28;20031;-81
2020/12/24 01:31:00;;;;;;;17.17;10.07;;;0.40;99.90;;;;;;4973037;28;20422;-78
2020/12/24 01:33:27;;;;;;;17.27;10.18;;;0.40;99.90;;;;;;4973772;28;20039;-79
2020/12/24 01:35:53;;;;;;;17.65;10.35;;;0.40;99.90;;;;;;4972580;28;20033;-80
2020/12/24 01:38:19;;;;;;;18.40;9.82;;;0.40;99.90;;;;;;4972407;28;20038;-79
2020/12/24 01:40:45;;;;;;;17.67;10.70;;;0.40;99.90;;;;;;4973461;28;20070;-80
2020/12/24 01:43:11;;;;;;;18.08;10.65;;;0.40;99.90;;;;;;4973510;28;20054;-80
2020/12/24 01:45:37;;;;;;;18.98;10.45;;;0.40;99.90;;;;;;4973607;28;20177;-80
2020/12/24 01:48:03;;;;;;;18.27;10.88;;;0.40;99.90;;;;;;4973721;28;20027;-79
2020/12/24 01:50:28;;;;;;;20.33;11.05;;;0.40;99.90;;;;;;4973451;28;20026;-79
2020/12/24 01:52:56;;;;;;;18.60;10.73;;;0.40;99.90;;;;;;4973876;28;20114;-80
2020/12/24 01:55:23;;;;;;;20.42;11.10;;;0.40;99.90;;;;;;4973584;28;20035;-80
2020/12/24 01:57:51;;;;;;;21.23;11.23;;;0.40;99.90;;;;;;4973720;28;20031;-80
2020/12/24 02:00:17;;;;;;;19.40;11.23;;;0.40;99.90;;;;;;4973162;28;20125;-80
2020/12/24 02:02:43;;;;;;;19.13;10.32;;;0.40;99.90;;;;;;4973528;28;20121;-76
2020/12/24 02:05:09;;;;;;;20.50;10.52;;;0.40;99.90;;;;;;4973022;28;20031;-76
2020/12/24 02:07:35;;;;;;;19.20;9.77;;;0.40;99.90;;;;;;4973039;28;20035;-80
2020/12/24 02:10:01;;;;;;;18.83;10.18;;;0.40;99.90;;;;;;4974230;28;20035;-80
2020/12/24 02:12:27;;;;;;;18.08;9.77;;;0.40;99.90;;;;;;4973762;28;20437;-80
2020/12/24 02:14:53;;;;;;;19.02;10.25;;;0.40;99.90;;;;;;4973786;28;20138;-81
2020/12/24 02:17:19;;;;;;;18.23;10.23;;;0.40;99.90;;;;;;4973335;28;20035;-76
2020/12/24 02:19:44;;;;;;;15.50;9.30;;;0.40;99.90;;;;;;4972785;28;20392;-76
2020/12/24 02:22:11;;;;;;;15.25;9.30;;;0.40;99.90;;;;;;4972615;28;20030;-77
2020/12/24 02:24:41;;;;;;;18.42;9.90;;;0.50;99.90;;;;;;4972925;28;20102;-76
2020/12/24 02:27:07;;;;;;;17.42;9.93;;;0.50;99.90;;;;;;4972942;28;20031;-76
2020/12/24 02:29:33;;;;;;;34.20;18.33;;;0.50;99.90;;;;;;4972703;28;20731;-76
2020/12/24 02:31:59;;;;;;;24.10;13.70;;;0.40;99.90;;;;;;4971454;28;20034;-76
2020/12/24 02:34:25;;;;;;;17.55;10.07;;;0.40;99.90;;;;;;4972878;28;20038;-76
2020/12/24 02:36:50;;;;;;;15.95;9.23;;;0.40;99.90;;;;;;4972665;28;20054;-76
2020/12/24 02:39:16;;;;;;;16.23;8.43;;;0.40;99.90;;;;;;4972680;28;20102;-76
2020/12/24 02:41:42;;;;;;;16.48;9.90;;;0.40;99.90;;;;;;4971309;28;20417;-76
2020/12/24 02:44:07;;;;;;;13.48;8.10;;;0.40;99.90;;;;;;4958675;28;20101;-76
2020/12/24 02:46:33;;;;;;;14.90;8.88;;;0.40;99.90;;;;;;4975032;28;20429;-75
2020/12/24 02:48:59;;;;;;;14.80;8.43;;;0.40;99.90;;;;;;4976319;28;20050;-75
2020/12/24 02:51:25;;;;;;;13.35;8.80;;;0.40;99.90;;;;;;4958952;28;20035;-76
2020/12/24 02:53:50;;;;;;;12.95;7.82;;;0.40;99.90;;;;;;4976327;28;20034;-76
2020/12/24 02:56:16;;;;;;;14.18;8.27;;;0.40;99.90;;;;;;4976276;28;20066;-76
2020/12/24 02:58:42;;;;;;;14.43;8.95;;;0.30;99.90;;;;;;4976302;28;20034;-76
2020/12/24 03:01:07;;;;;;;15.10;8.13;;;0.30;99.90;;;;;;4976114;28;20031;-76
2020/12/24 03:03:33;;;;;;;15.63;8.77;;;0.30;99.90;;;;;;4976264;28;20355;-76
2020/12/24 03:05:59;;;;;;;14.75;8.93;;;0.30;99.90;;;;;;4976067;28;20074;-75
2020/12/24 03:08:26;;;;;;;13.27;8.25;;;0.30;99.90;;;;;;4976234;28;20035;-76
2020/12/24 03:10:52;;;;;;;17.00;8.80;;;0.30;99.90;;;;;;4976271;28;20727;-76
2020/12/24 03:13:18;;;;;;;17.27;9.30;;;0.30;99.90;;;;;;4958560;28;20038;-77
2020/12/24 03:15:43;;;;;;;14.70;8.70;;;0.30;99.90;;;;;;4975773;28;20074;-76
2020/12/24 03:18:09;;;;;;;13.90;8.77;;;0.30;99.90;;;;;;4974684;28;20106;-77
2020/12/24 03:20:35;;;;;;;13.55;8.32;;;0.30;99.90;;;;;;4975764;28;20377;-76
2020/12/24 03:23:00;;;;;;;14.23;8.90;;;0.30;99.90;;;;;;4975736;28;20027;-76
2020/12/24 03:25:26;;;;;;;12.85;7.70;;;0.30;99.90;;;;;;4975589;28;20033;-76
2020/12/24 03:27:52;;;;;;;16.08;8.90;;;0.30;99.90;;;;;;4975440;28;20031;-75
2020/12/24 03:30:18;;;;;;;14.80;8.85;;;0.30;99.90;;;;;;4975414;28;20030;-75
2020/12/24 03:32:44;;;;;;;15.02;9.10;;;0.30;99.90;;;;;;4975453;28;20031;-76
2020/12/24 03:35:10;;;;;;;15.18;8.85;;;0.30;99.90;;;;;;4975445;28;20027;-77
2020/12/24 03:37:35;;;;;;;12.77;8.15;;;0.40;99.90;;;;;;4958268;28;20079;-77
2020/12/24 03:40:01;;;;;;;12.85;8.25;;;0.40;99.90;;;;;;4975324;28;20030;-77
2020/12/24 03:42:27;;;;;;;12.77;8.32;;;0.40;99.90;;;;;;4975186;28;20409;-76
2020/12/24 03:44:53;;;;;;;14.43;8.93;;;0.40;99.90;;;;;;4975294;28;20027;-76
2020/12/24 03:47:18;;;;;;;14.25;8.95;;;0.40;99.90;;;;;;4975144;28;20098;-75
2020/12/24 03:49:44;;;;;;;14.68;8.02;;;0.40;99.90;;;;;;4975401;28;20439;-76
2020/12/24 03:52:09;;;;;;;14.77;8.52;;;0.40;99.90;;;;;;4975375;28;20045;-75
2020/12/24 03:54:35;;;;;;;15.65;9.07;;;0.40;99.90;;;;;;4974406;28;20504;-76
2020/12/24 03:57:01;;;;;;;15.35;9.27;;;0.40;99.90;;;;;;4975159;28;20038;-76
2020/12/24 03:59:26;;;;;;;14.57;8.25;;;0.40;99.90;;;;;;4975158;28;20030;-74
2020/12/24 04:01:52;;;;;;;15.38;7.97;;;0.50;99.90;;;;;;4974784;28;20037;-75
2020/12/24 04:04:18;;;;;;;16.52;8.75;;;0.50;99.90;;;;;;4974832;28;20030;-75
2020/12/24 04:06:43;;;;;;;13.98;8.32;;;0.50;99.90;;;;;;4974771;28;20026;-75
2020/12/24 04:09:09;;;;;;;11.05;7.50;;;0.50;99.90;;;;;;4974619;28;20031;-75
2020/12/24 04:11:35;;;;;;;13.45;8.48;;;0.50;99.90;;;;;;4973309;28;20041;-75
2020/12/24 04:14:00;;;;;;;14.98;8.10;;;0.50;99.90;;;;;;4973108;28;20074;-74
2020/12/24 04:16:26;;;;;;;14.25;8.18;;;0.50;99.90;;;;;;4974750;28;20058;-75
2020/12/24 04:18:52;;;;;;;22.23;11.70;;;0.40;99.90;;;;;;4957237;28;20492;-75
2020/12/24 04:21:19;;;;;;;17.20;10.30;;;0.50;99.90;;;;;;4957019;28;20031;-75
2020/12/24 04:23:45;;;;;;;12.95;8.00;;;0.50;99.90;;;;;;4974399;28;20019;-75
2020/12/24 04:26:18;;;;;;;13.32;8.20;;;0.50;99.90;;;;;;4974641;28;20450;-75
2020/12/24 04:28:44;;;;;;;11.98;7.55;;;0.50;99.90;;;;;;4957052;28;20050;-75
2020/12/24 04:31:10;;;;;;;15.18;8.80;;;0.50;99.90;;;;;;4974186;28;20030;-76
2020/12/24 04:33:38;;;;;;;14.52;8.23;;;0.50;99.90;;;;;;4974131;28;20038;-76
2020/12/24 04:36:04;;;;;;;14.30;8.00;;;0.50;99.90;;;;;;4974047;28;20027;-75
2020/12/24 04:38:29;;;;;;;14.65;9.05;;;0.50;99.90;;;;;;4974166;28;20488;-77
2020/12/24 04:40:57;;;;;;;14.63;8.32;;;0.60;99.90;;;;;;4974197;28;20022;-76
2020/12/24 04:43:25;;;;;;;14.07;8.20;;;0.60;99.90;;;;;;4974233;28;20050;-76
2020/12/24 04:45:52;;;;;;;17.20;8.85;;;0.60;99.90;;;;;;4973928;28;20363;-76
2020/12/24 04:48:19;;;;;;;14.98;8.68;;;0.60;99.90;;;;;;4956638;28;20027;-76
2020/12/24 04:50:49;;;;;;;15.88;9.60;;;0.60;99.90;;;;;;4973948;28;20029;-77
2020/12/24 04:53:15;;;;;;;16.08;8.90;;;0.50;99.90;;;;;;4974218;28;20053;-76
2020/12/24 04:55:41;;;;;;;18.60;9.05;;;0.50;99.90;;;;;;4972407;28;20031;-76
2020/12/24 04:58:10;;;;;;;14.13;8.30;;;0.60;99.90;;;;;;4955873;28;20328;-77
2020/12/24 05:00:39;;;;;;;17.05;8.65;;;0.60;99.90;;;;;;4955291;28;20022;-77
2020/12/24 05:03:05;;;;;;;12.90;8.30;;;0.60;99.90;;;;;;4973695;28;20022;-76
2020/12/24 05:05:32;;;;;;;17.50;9.35;;;0.60;99.90;;;;;;4973449;28;20466;-76
2020/12/24 05:08:01;;;;;;;14.35;8.50;;;0.60;99.90;;;;;;4973086;28;20082;-78
2020/12/24 05:10:26;;;;;;;14.68;8.70;;;0.60;99.90;;;;;;4973013;28;20027;-76
2020/12/24 05:12:52;;;;;;;15.05;8.57;;;0.70;99.90;;;;;;4973538;28;20491;-76
2020/12/24 05:15:28;;;;;;;15.55;9.18;;;0.70;99.90;;;;;;4973253;28;20106;-76
2020/12/24 05:17:54;;;;;;;15.65;9.50;;;0.70;99.90;;;;;;4955762;28;20018;-76
2020/12/24 05:20:20;;;;;;;18.17;10.25;;;0.70;99.90;;;;;;4973096;28;20359;-77
2020/12/24 05:22:46;;;;;;;16.10;9.23;;;0.70;99.90;;;;;;4971832;28;20572;-77
2020/12/24 05:25:19;;;;;;;19.48;10.43;;;0.70;99.90;;;;;;4971851;28;20113;-76
2020/12/24 05:27:56;;;;;;;18.98;10.10;;;0.70;99.90;;;;;;4973129;28;20030;-76
2020/12/24 05:30:26;;;;;;;17.42;10.13;;;0.70;99.90;;;;;;4971408;28;20399;-78
2020/12/24 05:32:52;;;;;;;22.40;10.70;;;0.70;99.90;;;;;;4971258;28;20023;-77
2020/12/24 05:35:23;;;;;;;16.50;10.20;;;0.70;99.90;;;;;;4972432;28;20081;-76
2020/12/24 05:37:53;;;;;;;16.48;9.38;;;0.70;99.90;;;;;;4972712;28;20039;-76
2020/12/24 05:40:27;;;;;;;19.70;10.63;;;0.70;99.90;;;;;;4955344;28;20030;-77
2020/12/24 05:42:59;;;;;;;17.90;9.70;;;0.70;99.90;;;;;;4972246;28;20202;-77
2020/12/24 05:45:30;;;;;;;17.10;9.27;;;0.70;99.90;;;;;;4970369;28;20027;-78
2020/12/24 05:48:05;;;;;;;18.63;10.25;;;0.70;99.90;;;;;;4972405;28;20070;-78
2020/12/24 05:50:31;;;;;;;17.00;10.18;;;0.70;99.90;;;;;;4972341;28;20082;-79
2020/12/24 05:53:10;;;;;;;19.35;10.70;;;0.70;99.90;;;;;;4972529;28;20436;-79
2020/12/24 05:55:40;;;;;;;18.80;10.75;;;0.70;99.90;;;;;;4971966;28;20038;-79
2020/12/24 05:58:10;;;;;;;19.50;10.48;;;0.70;99.90;;;;;;4971870;28;20077;-79
2020/12/24 06:00:39;;;;;;;20.50;11.00;;;0.70;99.90;;;;;;4970900;28;20086;-82
2020/12/24 06:03:12;;;;;;;21.60;11.23;;;0.80;99.90;;;;;;4976381;28;20027;-85
2020/12/24 06:05:53;;;;;;;20.10;11.30;;;0.80;99.90;;;;;;4992827;28;20069;-84
2020/12/24 06:08:22;;;;;;;20.08;11.45;;;0.80;99.90;;;;;;4991723;28;20042;-83
2020/12/24 06:11:03;;;;;;;21.05;11.23;;;0.80;99.90;;;;;;4991461;28;20049;-83
2020/12/24 06:13:37;;;;;;;22.00;12.20;;;0.80;99.90;;;;;;4993113;28;20105;-84
2020/12/24 06:16:10;;;;;;;18.70;11.35;;;0.70;99.90;;;;;;4991521;28;20097;-83
2020/12/24 06:18:46;;;;;;;24.75;12.15;;;0.80;99.90;;;;;;4994276;28;20030;-83
2020/12/24 06:21:19;;;;;;;22.90;12.05;;;0.80;99.90;;;;;;4996928;28;20084;-84
2020/12/24 06:24:02;;;;;;;23.02;12.60;;;0.80;99.90;;;;;;4995265;28;20492;-83
2020/12/24 06:26:34;;;;;;;24.17;12.07;;;0.80;99.90;;;;;;4995003;28;20026;-83
2020/12/24 06:29:02;;;;;;;19.77;11.18;;;0.80;99.90;;;;;;4996210;28;20085;-83
2020/12/24 06:31:33;;;;;;;19.60;10.88;;;0.80;99.90;;;;;;4994756;28;20030;-83
2020/12/24 06:34:23;;;;;;;21.80;10.98;;;0.80;99.90;;;;;;4994582;28;20572;-82
2020/12/24 06:36:49;;;;;;;21.45;11.95;;;0.80;99.90;;;;;;4995800;28;20058;-83
2020/12/24 06:39:39;;;;;;;19.60;11.35;;;0.80;99.90;;;;;;4995946;28;20076;-83
2020/12/24 06:42:06;;;;;;;20.90;11.75;;;0.80;99.90;;;;;;4995795;28;20077;-79
2020/12/24 06:44:48;;;;;;;22.65;12.25;;;0.80;99.90;;;;;;4995605;28;20033;-83
2020/12/24 06:47:15;;;;;;;21.85;12.20;;;0.90;99.90;;;;;;4993789;28;20029;-84
2020/12/24 06:49:41;;;;;;;22.95;11.50;;;0.90;99.90;;;;;;4994712;28;20023;-84
2020/12/24 06:52:07;;;;;;;22.45;11.98;;;0.90;99.90;;;;;;4994951;28;20026;-84
2020/12/24 06:54:33;;;;;;;23.10;12.60;;;1.00;99.90;;;;;;4996177;28;20037;-83
2020/12/24 06:57:26;;;;;;;19.13;11.13;;;1.00;99.90;;;;;;4994122;28;20049;-83
2020/12/24 07:00:20;;;;;;;19.30;11.07;;;1.10;99.90;;;;;;4994983;28;20073;-83
2020/12/24 07:02:50;;;;;;;20.98;11.85;;;1.10;99.90;;;;;;4993368;28;20121;-84
2020/12/24 07:05:41;;;;;;;22.02;11.48;;;1.10;99.90;;;;;;4996226;28;20068;-83
2020/12/24 07:08:11;;;;;;;22.40;12.98;;;1.10;99.90;;;;;;4995844;28;20102;-82
2020/12/24 07:10:46;;;;;;;18.92;10.90;;;1.20;99.90;;;;;;4994849;28;20670;-83
2020/12/24 07:13:32;;;;;;;23.88;11.95;;;1.20;99.90;;;;;;4996170;28;20141;-83
2020/12/24 07:15:58;;;;;;;18.35;10.52;;;1.30;99.90;;;;;;4995964;28;20049;-83
2020/12/24 07:18:24;;;;;;;24.00;11.75;;;1.30;99.90;;;;;;4978104;28;20030;-84
2020/12/24 07:20:54;;;;;;;24.00;12.27;;;1.30;99.90;;;;;;4995262;28;20137;-83
2020/12/24 07:23:49;;;;;;;23.92;12.20;;;1.30;99.90;;;;;;4996398;28;20014;-82
2020/12/24 07:26:15;;;;;;;24.55;13.00;;;1.20;99.90;;;;;;4987788;28;20038;-84
2020/12/24 07:28:41;;;;;;;22.75;12.45;;;1.30;99.90;;;;;;4976689;28;20019;-84
2020/12/24 07:31:10;;;;;;;20.85;12.10;;;1.30;99.90;;;;;;4977893;28;20065;-82
2020/12/24 07:33:44;;;;;;;33.97;12.57;;;1.20;99.90;;;;;;4994458;28;20022;-83
2020/12/24 07:36:10;;;;;;;29.92;13.55;;;1.30;99.90;;;;;;4996188;28;20026;-81
2020/12/24 07:38:37;;;;;;;28.05;15.25;;;1.40;99.90;;;;;;4995605;28;20104;-82
2020/12/24 07:41:03;;;;;;;28.35;15.85;;;1.40;99.90;;;;;;4995293;28;20380;-82
2020/12/24 07:43:28;;;;;;;28.15;14.88;;;1.50;99.90;;;;;;4994548;28;20033;-83
2020/12/24 07:45:54;;;;;;;26.38;13.93;;;1.50;99.90;;;;;;4995532;28;20467;-82
2020/12/24 07:48:22;;;;;;;29.08;14.43;;;1.50;99.90;;;;;;4995342;28;20030;-83
2020/12/24 07:50:49;;;;;;;19.48;11.35;;;1.60;99.90;;;;;;4994094;28;20053;-84
2020/12/24 07:53:20;;;;;;;22.33;12.52;;;1.60;99.90;;;;;;4995230;28;20034;-83
2020/12/24 07:55:46;;;;;;;24.13;13.07;;;1.60;99.90;;;;;;4995343;28;20038;-83
2020/12/24 07:58:14;;;;;;;21.25;12.02;;;1.70;99.90;;;;;;4995084;28;20098;-84
2020/12/24 08:00:48;;;;;;;20.40;12.10;;;1.70;99.90;;;;;;4997159;28;20061;-83
2020/12/24 08:03:18;;;;;;;19.25;11.50;;;1.80;99.90;;;;;;4995231;28;20416;-82
2020/12/24 08:05:45;;;;;;;25.50;12.10;;;1.80;99.90;;;;;;4994913;28;20030;-83
2020/12/24 08:08:11;;;;;;;17.67;11.10;;;1.80;99.90;;;;;;4994520;28;20116;-84
2020/12/24 08:10:41;;;;;;;22.42;12.45;;;1.90;99.90;;;;;;4995268;28;20018;-82
2020/12/24 08:13:07;;;;;;;22.92;12.73;;;1.90;99.90;;;;;;4999121;28;20030;-83
2020/12/24 08:15:35;;;;;;;29.10;14.10;;;2.00;99.90;;;;;;5000052;28;20061;-83
2020/12/24 08:18:04;;;;;;;21.40;12.40;;;2.00;99.90;;;;;;5003195;28;20074;-84
2020/12/24 08:20:57;;;;;;;23.23;13.32;;;2.00;99.90;;;;;;4996399;28;20072;-81
2020/12/24 08:24:00;;;;;;;25.10;13.68;;;2.00;99.90;;;;;;4997025;28;20065;-82
2020/12/24 08:26:26;;;;;;;24.95;12.65;;;2.10;99.90;;;;;;4956011;29;20047;-84
2020/12/24 08:29:01;;;;;;;21.40;12.18;;;2.10;99.90;;;;;;4986632;28;20563;-83
2020/12/24 08:31:29;;;;;;;22.02;11.63;;;2.20;99.90;;;;;;4995030;28;20031;-83
2020/12/24 08:33:55;;;;;;;20.13;11.85;;;2.20;99.90;;;;;;4995278;28;20030;-84
2020/12/24 08:36:26;;;;;;;20.98;12.35;;;2.20;99.90;;;;;;4994633;28;20122;-84
2020/12/24 08:39:06;;;;;;;30.05;13.18;;;2.20;99.90;;;;;;4993358;28;20027;-84
2020/12/24 08:41:35;;;;;;;28.52;15.45;;;2.20;99.90;;;;;;4994050;28;20022;-85
2020/12/24 08:44:04;;;;;;;28.30;15.52;;;2.20;99.90;;;;;;4993075;28;20034;-85
2020/12/24 08:46:30;;;;;;;27.45;13.93;;;2.20;99.90;;;;;;4994107;28;20030;-84
2020/12/24 08:48:56;;;;;;;28.33;14.45;;;2.20;99.90;;;;;;4992627;28;20030;-82
2020/12/24 08:51:22;;;;;;;28.23;14.45;;;2.20;99.90;;;;;;4993721;28;20033;-82
2020/12/24 08:53:51;;;;;;;28.52;14.25;;;2.20;99.90;;;;;;4994025;28;20369;-83
2020/12/24 08:56:17;;;;;;;24.95;13.13;;;2.20;99.90;;;;;;4992400;28;20026;-84
2020/12/24 08:58:48;;;;;;;23.20;12.38;;;2.20;99.90;;;;;;4992456;28;20037;-81
2020/12/24 09:01:14;;;;;;;26.73;13.82;;;2.30;99.90;;;;;;4992068;28;20505;-81
2020/12/24 09:03:40;;;;;;;25.42;13.23;;;2.30;99.90;;;;;;4992181;28;20032;-81
2020/12/24 09:06:13;;;;;;;24.20;13.27;;;2.30;99.90;;;;;;4992607;28;20018;-81
2020/12/24 09:08:49;;;;;;;27.40;14.23;;;2.30;99.90;;;;;;4990844;28;20084;-81
2020/12/24 09:11:33;;;;;;;31.02;14.50;;;2.40;99.90;;;;;;4992154;28;20049;-81
2020/12/24 09:14:01;;;;;;;34.85;16.80;;;2.40;99.90;;;;;;4991029;28;20070;-81
2020/12/24 09:16:27;;;;;;;30.55;16.67;;;2.30;99.90;;;;;;4992974;28;20030;-81
2020/12/24 09:19:08;;;;;;;31.98;15.93;;;2.30;99.90;;;;;;4991322;28;20028;-81
2020/12/24 09:21:34;;;;;;;26.40;14.60;;;2.30;99.90;;;;;;4990801;28;20022;-80
2020/12/24 09:24:07;;;;;;;30.63;14.13;;;2.30;99.90;;;;;;4991193;28;20026;-80
2020/12/24 09:26:46;;;;;;;27.77;13.88;;;2.30;99.90;;;;;;4991277;28;20023;-80
2020/12/24 09:29:13;;;;;;;28.92;14.65;;;2.30;99.90;;;;;;4992922;28;20707;-80
2020/12/24 09:48:26;;;;;;;27.80;15.65;;;2.50;99.90;;;;;;5074125;23;20065;-81
2020/12/24 09:50:52;;;;;;;21.70;12.70;;;2.50;99.90;;;;;;4993054;28;20026;-80
2020/12/24 09:53:17;;;;;;;26.13;15.25;;;2.50;99.90;;;;;;4973873;28;20113;-80
2020/12/24 09:55:43;;;;;;;28.50;16.02;;;2.60;99.90;;;;;;4974195;28;20027;-81
2020/12/24 09:58:12;;;;;;;28.67;15.30;;;2.60;99.90;;;;;;4992538;28;20495;-81
2020/12/24 10:00:37;;;;;;;26.60;15.68;;;2.70;99.90;;;;;;4975300;28;20117;-81
2020/12/24 10:03:03;;;;;;;21.65;13.43;;;2.70;99.90;;;;;;4975239;28;20074;-80
2020/12/24 10:05:30;;;;;;;24.08;13.43;;;2.80;99.90;;;;;;4976406;28;20036;-81
2020/12/24 10:07:58;;;;;;;21.13;12.70;;;2.90;99.90;;;;;;4975075;28;20056;-81
2020/12/24 10:10:23;;;;;;;24.73;13.90;;;2.90;99.90;;;;;;4992780;28;20027;-81
2020/12/24 10:12:49;;;;;;;22.52;12.82;;;2.90;99.90;;;;;;4992568;28;20381;-82
2020/12/24 10:15:15;;;;;;;25.80;13.32;;;3.00;99.90;;;;;;4974671;28;20135;-83
2020/12/24 10:17:40;;;;;;;23.67;13.00;;;3.00;99.90;;;;;;4993062;28;20472;-83
2020/12/24 10:20:06;;;;;;;23.48;13.93;;;2.90;99.90;;;;;;4992529;28;20034;-79
2020/12/24 10:22:32;;;;;;;21.77;12.25;;;3.00;99.90;;;;;;4965404;28;20035;-79
2020/12/24 10:24:58;;;;;;;21.85;12.82;;;2.90;99.90;;;;;;4958236;28;20033;-80
2020/12/24 10:27:25;;;;;;;22.48;12.07;;;2.90;99.90;;;;;;4988670;28;20041;-86
2020/12/24 10:29:51;;;;;;;23.67;13.68;;;2.90;99.90;;;;;;4993433;28;20031;-88
2020/12/24 10:32:16;;;;;;;22.15;13.32;;;2.90;99.90;;;;;;4976578;28;20114;-87
2020/12/24 10:34:42;;;;;;;26.88;13.93;;;2.80;99.90;;;;;;4993473;28;20454;-89
2020/12/24 10:37:08;;;;;;;21.63;12.90;;;2.80;99.90;;;;;;4989811;28;20031;-85
2020/12/24 10:39:33;;;;;;;21.15;12.10;;;2.80;99.90;;;;;;4961167;28;20038;-87
2020/12/24 10:41:59;;;;;;;20.00;12.15;;;2.90;99.90;;;;;;4961699;28;20078;-88
2020/12/24 10:44:25;;;;;;;20.92;12.80;;;2.90;99.90;;;;;;4956393;28;20471;-88
2020/12/24 10:46:57;;;;;;;22.15;12.82;;;2.90;99.90;;;;;;4980444;28;20105;-89
2020/12/24 10:49:24;;;;;;;22.95;13.27;;;2.90;99.90;;;;;;4993797;28;20046;-90
2020/12/24 10:51:51;;;;;;;21.17;12.10;;;2.90;99.90;;;;;;4993254;28;20065;-87
2020/12/24 10:54:17;;;;;;;19.30;12.25;;;2.90;99.90;;;;;;4993271;28;20034;-88
2020/12/24 10:56:50;;;;;;;22.65;12.38;;;3.00;99.90;;;;;;4993348;28;20101;-88
2020/12/24 10:59:16;;;;;;;20.38;12.23;;;3.00;99.90;;;;;;4993029;28;20018;-87
2020/12/24 11:01:47;;;;;;;24.13;12.98;;;2.90;99.90;;;;;;4975189;28;20381;-90
2020/12/24 11:04:13;;;;;;;22.25;12.43;;;2.90;99.90;;;;;;4977396;28;20484;-87
2020/12/24 11:06:42;;;;;;;25.70;14.65;;;3.00;99.90;;;;;;4997138;28;20081;-87
2020/12/24 11:09:08;;;;;;;26.13;14.10;;;2.90;99.90;;;;;;4997205;28;20023;-87
2020/12/24 11:11:34;;;;;;;28.90;14.15;;;2.90;99.90;;;;;;4996621;28;20085;-87
2020/12/24 11:14:00;;;;;;;24.15;13.80;;;2.90;99.90;;;;;;4996518;28;20059;-86
2020/12/24 11:16:26;;;;;;;38.00;17.88;;;2.90;99.90;;;;;;4996478;28;20091;-86
2020/12/24 11:18:53;;;;;;;61.17;30.38;;;2.80;99.90;;;;;;4996395;28;20028;-88
2020/12/24 11:21:20;;;;;;;28.65;15.90;;;2.80;99.90;;;;;;4996676;28;20140;-87
2020/12/24 11:23:46;;;;;;;30.95;17.27;;;2.80;99.90;;;;;;4979007;28;20046;-85
2020/12/24 11:26:22;;;;;;;31.02;15.55;;;2.90;99.90;;;;;;4989675;28;20074;-86
2020/12/24 11:28:49;;;;;;;31.10;17.38;;;2.90;99.90;;;;;;4959961;28;20023;-84
2020/12/24 11:31:25;;;;;;;31.45;17.98;;;2.90;99.90;;;;;;4986930;28;20038;-88
2020/12/24 11:33:51;;;;;;;27.92;17.00;;;2.90;99.90;;;;;;4994989;28;20060;-78
2020/12/24 11:36:18;;;;;;;28.85;16.27;;;2.80;99.90;;;;;;4977521;28;20213;-78
2020/12/24 11:38:44;;;;;;;25.90;15.98;;;2.90;99.90;;;;;;4994558;28;20062;-79
2020/12/24 11:41:15;;;;;;;28.75;16.00;;;2.90;99.90;;;;;;4994107;28;20027;-80
2020/12/24 11:43:41;;;;;;;35.50;19.50;;;3.00;99.90;;;;;;4977011;28;20022;-79
2020/12/24 11:46:12;;;;;;;31.30;16.92;;;2.90;99.90;;;;;;4994459;28;20029;-79
2020/12/24 11:48:38;;;;;;;32.05;17.88;;;2.90;99.90;;;;;;4994391;28;20057;-79
2020/12/24 11:51:08;;;;;;;29.50;16.60;;;2.90;99.90;;;;;;4994279;28;20463;-80
2020/12/24 11:53:36;;;;;;;31.13;17.75;;;2.80;99.90;;;;;;4994028;28;20023;-80
2020/12/24 11:56:02;;;;;;;31.60;17.83;;;2.80;99.90;;;;;;4993967;28;20060;-80
2020/12/24 11:58:28;;;;;;;28.98;17.08;;;2.70;99.90;;;;;;4993428;28;20031;-78
2020/12/24 12:00:54;;;;;;;27.45;17.38;;;2.70;99.90;;;;;;4993765;28;20049;-80
2020/12/24 12:03:19;;;;;;;35.15;19.30;;;2.70;99.90;;;;;;4994209;28;20073;-80
2020/12/24 12:05:45;;;;;;;27.95;17.30;;;2.70;99.90;;;;;;4995056;28;20385;-86
2020/12/24 12:08:11;;;;;;;32.08;18.45;;;2.70;99.90;;;;;;4997228;28;20499;-86
2020/12/24 12:10:36;;;;;;;31.45;18.40;;;2.60;99.90;;;;;;4998263;28;20019;-89
2020/12/24 12:13:03;;;;;;;33.05;19.42;;;2.60;99.90;;;;;;4995265;28;20535;-87
2020/12/24 12:15:29;;;;;;;36.72;18.85;;;2.60;99.90;;;;;;4977257;28;20495;-89
2020/12/24 12:17:54;;;;;;;32.55;18.35;;;2.50;99.90;;;;;;4995701;28;20337;-89
2020/12/24 12:20:20;;;;;;;33.85;18.38;;;2.50;99.90;;;;;;4995699;28;20022;-88
2020/12/24 12:22:47;;;;;;;30.90;18.40;;;2.50;99.90;;;;;;4995589;28;20042;-87
2020/12/24 12:25:13;;;;;;;35.42;19.90;;;2.50;99.90;;;;;;4977815;28;20377;-89
2020/12/24 12:27:39;;;;;;;38.53;20.02;;;2.40;99.90;;;;;;4977793;28;20033;-88
2020/12/24 12:30:05;;;;;;;38.25;20.98;;;2.40;99.90;;;;;;4995977;28;20065;-89
2020/12/24 12:32:31;;;;;;;37.28;21.05;;;2.30;99.90;;;;;;4996127;28;20026;-88
2020/12/24 12:34:57;;;;;;;38.40;20.33;;;2.30;99.90;;;;;;4978171;28;20400;-87
2020/12/24 12:37:23;;;;;;;40.40;20.58;;;2.30;99.90;;;;;;4995477;28;20106;-88
2020/12/24 12:39:51;;;;;;;38.03;20.63;;;2.30;99.90;;;;;;4995141;28;20449;-88
2020/12/24 12:42:17;;;;;;;45.63;20.88;;;2.30;99.90;;;;;;4995106;28;20030;-88
2020/12/24 12:44:43;;;;;;;56.70;24.67;;;2.30;99.90;;;;;;4995569;28;20038;-88
2020/12/24 12:47:09;;;;;;;59.25;24.95;;;2.30;99.90;;;;;;4978668;28;20049;-81
2020/12/24 12:49:35;;;;;;;72.95;26.95;;;2.20;99.90;;;;;;4996951;28;20026;-85
2020/12/24 12:52:04;;;;;;;69.18;27.35;;;2.20;99.90;;;;;;5005274;28;20030;-82
2020/12/24 12:54:30;;;;;;;63.97;24.98;;;2.20;99.90;;;;;;4996538;28;20030;-85
2020/12/24 12:56:56;;;;;;;49.00;23.40;;;2.10;99.90;;;;;;4984953;28;20175;-84
2020/12/24 12:59:22;;;;;;;66.55;27.60;;;2.10;99.90;;;;;;4981019;28;20469;-84
2020/12/24 13:01:54;;;;;;;62.70;25.08;;;2.00;99.90;;;;;;4960081;28;20482;-84